Time;durP1;ratioP1;P1;durP2;ratioP2;P2;SDS_P1;SDS_P2;PMS_P1;PMS_P2;Temp;Humidity;BMP_temperature;BMP_pressure;BME280_temperature;BME280_humidity;BME280_pressure;Samples;Min_cycle;Max_cycle;Signal;HPM_P1;HPM_P2
2023/04/06 00:02:06;;;;;;;20.95;14.00;;;-1.60;99.90;;;-0.71;93.52;101145.84;4877731;29;20036;-75
2023/04/06 00:04:32;;;;;;;21.60;13.50;;;-1.60;99.90;;;-0.77;93.37;101136.50;4876529;29;20127;-75
2023/04/06 00:06:58;;;;;;;21.73;13.50;;;-1.60;99.90;;;-0.77;93.32;101133.81;4878032;29;20093;-75
2023/04/06 00:09:24;;;;;;;17.83;13.07;;;-1.60;99.90;;;-0.73;92.86;101144.16;4874985;29;20042;-76
2023/04/06 00:11:49;;;;;;;22.10;14.65;;;-1.70;99.90;;;-0.73;93.45;101148.66;4875518;29;20049;-75
2023/04/06 00:14:17;;;;;;;22.30;14.43;;;-1.70;99.90;;;-0.85;93.71;101125.59;4842644;29;20064;-74
2023/04/06 00:16:42;;;;;;;21.05;14.60;;;-1.70;99.90;;;-0.68;93.78;101137.53;4877544;29;20065;-75
2023/04/06 00:19:08;;;;;;;21.60;14.13;;;-1.60;99.90;;;-0.70;93.50;101126.13;4878503;29;20060;-74
2023/04/06 00:21:34;;;;;;;22.13;15.55;;;-1.50;99.90;;;-0.61;93.35;101139.56;4850626;29;20062;-75
2023/04/06 00:23:59;;;;;;;21.08;14.38;;;-1.50;99.90;;;-0.56;92.54;101133.81;4876665;29;20397;-75
2023/04/06 00:26:25;;;;;;;23.00;14.57;;;-1.50;99.90;;;-0.64;91.15;101125.56;4878059;29;20045;-75
2023/04/06 00:28:54;;;;;;;20.88;14.15;;;-1.60;99.90;;;-0.81;91.69;101127.84;4878235;29;20409;-75
2023/04/06 00:31:20;;;;;;;21.85;14.57;;;-1.70;99.90;;;-0.98;92.20;101133.81;4876877;29;20048;-75
2023/04/06 00:33:45;;;;;;;20.33;13.75;;;-1.90;99.90;;;-1.09;92.30;101132.88;4877766;29;20037;-75
2023/04/06 00:36:11;;;;;;;21.27;13.52;;;-2.00;99.90;;;-1.19;93.25;101127.47;4865186;29;20041;-74
2023/04/06 00:38:37;;;;;;;24.73;14.70;;;-2.10;99.90;;;-1.26;93.49;101126.25;4848603;29;20045;-74
2023/04/06 00:41:04;;;;;;;23.15;14.93;;;-2.20;99.90;;;-1.17;93.49;101136.22;4862735;29;20037;-74
2023/04/06 00:43:31;;;;;;;22.25;15.40;;;-2.30;99.90;;;-1.24;93.78;101120.78;4878090;29;20041;-74
2023/04/06 00:45:57;;;;;;;25.05;16.20;;;-2.30;99.90;;;-1.23;95.13;101111.75;4847625;29;20037;-74
2023/04/06 00:48:23;;;;;;;24.20;15.32;;;-2.30;99.90;;;-1.37;94.92;101105.72;4857990;29;20037;-74
2023/04/06 00:50:49;;;;;;;25.23;15.68;;;-2.30;99.90;;;-1.24;94.62;101115.44;4877045;29;20037;-75
2023/04/06 00:53:14;;;;;;;23.58;14.77;;;-2.30;99.90;;;-1.22;94.51;101125.00;4877601;29;20044;-74
2023/04/06 00:55:40;;;;;;;24.80;15.15;;;-2.30;99.90;;;-1.46;93.79;101101.13;4838451;29;20422;-74
2023/04/06 00:58:07;;;;;;;23.67;15.70;;;-2.40;99.90;;;-1.54;94.56;101109.78;4872135;29;20029;-75
2023/04/06 01:00:41;;;;;;;23.25;15.13;;;-2.50;99.90;;;-1.69;95.04;101109.22;4854921;29;20041;-75
2023/04/06 01:03:09;;;;;;;25.83;15.10;;;-2.60;99.90;;;-1.97;95.45;101082.03;4860037;29;20029;-75
2023/04/06 01:05:40;;;;;;;24.08;14.43;;;-2.70;99.90;;;-1.80;97.59;101111.94;4847469;29;20040;-74
2023/04/06 01:08:10;;;;;;;27.77;16.65;;;-2.70;99.90;;;-1.75;98.52;101115.91;4866432;29;20185;-74
2023/04/06 01:10:36;;;;;;;26.52;15.90;;;-2.60;99.90;;;-1.95;99.43;101082.78;4871971;29;20116;-75
2023/04/06 01:13:10;;;;;;;24.60;15.23;;;-2.60;99.90;;;-1.85;99.34;101098.94;4851540;29;20036;-74
2023/04/06 01:15:45;;;;;;;25.13;15.55;;;-2.70;99.90;;;-1.76;98.73;101108.03;4844966;29;20043;-74
2023/04/06 01:18:15;;;;;;;22.98;15.68;;;-2.80;99.90;;;-1.78;98.79;101102.78;4860816;29;20029;-75
2023/04/06 01:20:48;;;;;;;23.77;15.60;;;-2.80;99.90;;;-1.67;99.81;101096.56;4855595;29;20061;-73
2023/04/06 01:23:15;;;;;;;23.15;15.73;;;-2.80;99.90;;;-1.69;99.57;101093.16;4873056;29;20113;-74
2023/04/06 01:25:45;;;;;;;24.00;15.75;;;-2.70;99.90;;;-1.56;100.00;101097.53;4864624;29;20045;-73
2023/04/06 01:28:11;;;;;;;27.80;17.67;;;-2.60;99.90;;;-1.48;100.00;101098.56;4848430;29;20034;-73
2023/04/06 01:30:53;;;;;;;27.60;16.98;;;-2.50;99.90;;;-1.39;100.00;101102.31;4877080;29;20061;-73
2023/04/06 01:33:37;;;;;;;25.27;16.42;;;-2.50;99.90;;;-1.37;100.00;101092.34;4843869;29;20071;-74
2023/04/06 01:36:07;;;;;;;28.40;17.23;;;-2.40;99.90;;;-1.34;100.00;101108.13;4844767;29;20113;-74
2023/04/06 01:38:33;;;;;;;26.08;17.25;;;-2.40;99.90;;;-1.35;100.00;101090.38;4860722;29;20037;-74
2023/04/06 01:40:59;;;;;;;28.80;18.30;;;-2.40;99.90;;;-1.38;100.00;101090.63;4875195;29;20136;-73
2023/04/06 01:43:30;;;;;;;29.13;17.77;;;-2.40;99.90;;;-1.41;100.00;101090.06;4845918;29;20181;-73
2023/04/06 01:46:01;;;;;;;28.95;17.83;;;-2.40;99.90;;;-1.39;100.00;101094.28;4845393;29;20052;-74
2023/04/06 01:48:32;;;;;;;31.08;18.35;;;-2.50;99.90;;;-1.40;100.00;101084.56;4861617;29;20396;-74
2023/04/06 01:51:01;;;;;;;26.60;17.17;;;-2.50;99.90;;;-1.38;100.00;101090.63;4844551;29;20136;-73
2023/04/06 01:53:31;;;;;;;29.42;17.20;;;-2.40;99.90;;;-1.42;100.00;101091.03;4853660;29;20339;-73
2023/04/06 01:56:02;;;;;;;28.15;16.88;;;-2.50;99.90;;;-1.54;100.00;101090.22;4854332;29;20037;-73
2023/04/06 01:58:38;;;;;;;29.50;17.20;;;-2.60;99.90;;;-1.51;100.00;101089.97;4868060;29;20029;-73
2023/04/06 02:01:04;;;;;;;25.95;16.60;;;-2.60;99.90;;;-1.56;100.00;101089.50;4876211;29;20037;-74
2023/04/06 02:03:38;;;;;;;26.92;17.45;;;-2.70;99.90;;;-1.70;100.00;101091.47;4875938;29;20040;-73
2023/04/06 02:06:09;;;;;;;26.88;16.90;;;-2.70;99.90;;;-1.88;100.00;101085.81;4847061;29;20101;-74
2023/04/06 02:08:39;;;;;;;25.63;15.98;;;-2.80;99.90;;;-1.92;100.00;101087.03;4849485;29;20037;-74
2023/04/06 02:11:05;;;;;;;28.35;17.02;;;-2.90;99.90;;;-1.96;100.00;101090.94;4857013;29;20089;-73
2023/04/06 02:13:38;;;;;;;26.63;16.52;;;-3.00;99.90;;;-1.98;100.00;101083.03;4847846;29;20497;-73
2023/04/06 02:16:05;;;;;;;26.95;16.85;;;-3.00;99.90;;;-1.98;100.00;101076.84;4843841;29;20029;-73
2023/04/06 02:18:31;;;;;;;29.55;17.20;;;-3.00;99.90;;;-2.05;100.00;101071.97;4859626;29;20037;-73
2023/04/06 02:20:57;;;;;;;27.63;16.33;;;-3.00;99.90;;;-1.89;100.00;101082.25;4854249;29;20071;-73
2023/04/06 02:23:22;;;;;;;28.45;16.83;;;-3.00;99.90;;;-1.92;100.00;101085.19;4859026;29;20075;-73
2023/04/06 02:25:49;;;;;;;27.67;16.88;;;-3.00;99.90;;;-1.96;100.00;101077.56;4876497;29;20079;-73
2023/04/06 02:28:15;;;;;;;29.38;17.50;;;-3.00;99.90;;;-1.93;100.00;101080.81;4851596;29;20029;-73
2023/04/06 02:30:40;;;;;;;30.38;17.30;;;-2.90;99.90;;;-1.88;100.00;101078.63;4875832;29;20036;-74
2023/04/06 02:33:08;;;;;;;30.70;18.00;;;-2.90;99.90;;;-1.73;100.00;101073.84;4861664;29;20550;-74
2023/04/06 02:35:45;;;;;;;30.23;18.33;;;-2.80;99.90;;;-1.70;100.00;101080.78;4839473;29;20052;-73
2023/04/06 02:38:11;;;;;;;31.77;19.10;;;-2.70;99.90;;;-1.91;100.00;101030.72;4875762;29;20037;-74
2023/04/06 02:40:37;;;;;;;30.02;17.98;;;-2.70;99.90;;;-1.73;100.00;101073.00;4856472;29;20090;-73
2023/04/06 02:43:15;;;;;;;30.80;18.40;;;-2.70;99.90;;;-1.77;100.00;101071.56;4844277;29;20045;-73
2023/04/06 02:45:41;;;;;;;29.77;18.20;;;-2.70;99.90;;;-1.89;100.00;101060.88;4847821;29;20037;-73
2023/04/06 02:48:07;;;;;;;30.75;18.80;;;-2.80;99.90;;;-1.83;100.00;101069.38;4873327;29;20044;-73
2023/04/06 02:50:33;;;;;;;31.98;19.30;;;-2.80;99.90;;;-1.66;100.00;101062.66;4859182;29;20041;-74
2023/04/06 02:53:02;;;;;;;32.80;18.90;;;-2.80;99.90;;;-1.67;100.00;101058.28;4872647;29;20073;-74
2023/04/06 02:55:28;;;;;;;31.55;19.35;;;-2.70;99.90;;;-1.73;100.00;101070.31;4876140;29;20432;-74
2023/04/06 02:57:54;;;;;;;33.95;19.25;;;-2.70;99.90;;;-1.82;100.00;101055.88;4848634;29;20337;-74
2023/04/06 03:00:25;;;;;;;32.25;18.23;;;-2.80;99.90;;;-1.88;100.00;101062.56;4873561;29;20037;-74
2023/04/06 03:02:50;;;;;;;33.22;18.88;;;-2.90;99.90;;;-2.01;100.00;101061.88;4859774;29;20052;-74
2023/04/06 03:05:17;;;;;;;32.08;18.25;;;-2.90;99.90;;;-2.13;100.00;101054.84;4864223;29;20362;-74
2023/04/06 03:07:45;;;;;;;32.28;18.45;;;-3.00;99.90;;;-2.35;100.00;101061.94;4860758;29;20026;-75
2023/04/06 03:10:18;;;;;;;28.17;17.33;;;-3.20;99.90;;;-2.45;100.00;101061.81;4848024;29;20057;-74
2023/04/06 03:12:46;;;;;;;27.55;16.88;;;-3.30;99.90;;;-2.55;100.00;101053.66;4863872;29;20053;-74
2023/04/06 03:15:18;;;;;;;28.30;16.65;;;-3.40;99.90;;;-2.61;100.00;101054.16;4844270;29;20049;-74
2023/04/06 03:17:49;;;;;;;29.65;16.08;;;-3.50;99.90;;;-2.67;100.00;101044.78;4857161;29;20563;-74
2023/04/06 03:20:30;;;;;;;30.00;16.58;;;-3.50;99.90;;;-2.54;100.00;101049.16;4866828;29;20251;-75
2023/04/06 03:22:56;;;;;;;30.38;16.95;;;-3.40;99.90;;;-2.35;100.00;101059.25;4875675;29;20045;-75
2023/04/06 03:25:26;;;;;;;29.27;16.17;;;-3.30;99.90;;;-2.44;100.00;101054.63;4857308;29;20079;-76
2023/04/06 03:27:56;;;;;;;29.80;16.35;;;-3.30;99.90;;;-2.62;100.00;101063.97;4858735;29;20044;-73
2023/04/06 03:30:22;;;;;;;29.85;17.63;;;-3.40;99.90;;;-2.54;100.00;101052.69;4864305;29;20056;-73
2023/04/06 03:32:48;;;;;;;33.92;17.80;;;-3.50;99.90;;;-2.56;100.00;101054.63;4854689;29;20033;-72
2023/04/06 03:35:15;;;;;;;31.45;17.60;;;-3.50;99.90;;;-2.50;100.00;101061.31;4867233;29;20033;-73
2023/04/06 03:37:41;;;;;;;27.23;15.63;;;-3.40;99.90;;;-2.44;100.00;101050.13;4874031;29;20051;-73
2023/04/06 03:40:07;;;;;;;31.13;16.95;;;-3.30;99.90;;;-2.42;100.00;101053.53;4874455;29;20132;-73
2023/04/06 03:42:32;;;;;;;25.88;14.45;;;-3.30;99.90;;;-2.44;100.00;101054.63;4871899;29;20044;-73
2023/04/06 03:45:06;;;;;;;28.98;15.80;;;-3.40;99.90;;;-2.39;100.00;101055.97;4853406;29;20173;-73
2023/04/06 03:47:32;;;;;;;23.33;14.55;;;-3.50;99.90;;;-2.54;100.00;101052.69;4852469;29;20057;-73
2023/04/06 03:50:03;;;;;;;25.33;14.88;;;-3.50;99.90;;;-2.42;100.00;101055.34;4834173;29;20056;-73
2023/04/06 03:52:30;;;;;;;27.48;14.05;;;-3.50;99.90;;;-2.48;100.00;101060.22;4845390;29;20057;-73
2023/04/06 03:54:55;;;;;;;23.20;13.70;;;-3.50;99.90;;;-2.62;100.00;101044.44;4865552;29;20057;-75
2023/04/06 03:57:21;;;;;;;24.27;13.80;;;-3.50;99.90;;;-2.57;100.00;101065.44;4867198;29;20390;-74
2023/04/06 03:59:47;;;;;;;21.98;13.27;;;-3.60;99.90;;;-2.59;100.00;101060.22;4844860;29;20041;-74
2023/04/06 04:02:12;;;;;;;22.13;13.90;;;-3.60;99.90;;;-2.60;100.00;101061.19;4876586;29;20053;-74
2023/04/06 04:04:38;;;;;;;22.70;13.55;;;-3.50;99.90;;;-2.46;100.00;101066.28;4874084;29;20037;-74
2023/04/06 04:07:04;;;;;;;20.73;12.68;;;-3.40;99.90;;;-2.22;100.00;101067.97;4857463;29;20050;-74
2023/04/06 04:09:30;;;;;;;24.52;14.80;;;-3.20;99.90;;;-2.12;100.00;101059.19;4858556;29;20442;-74
2023/04/06 04:11:55;;;;;;;28.27;15.07;;;-3.10;99.90;;;-2.13;100.00;101063.72;4876090;29;20540;-74
2023/04/06 04:14:21;;;;;;;25.92;15.43;;;-3.10;99.90;;;-2.13;100.00;101068.19;4878412;29;20115;-74
2023/04/06 04:16:47;;;;;;;25.70;15.27;;;-3.10;99.90;;;-2.10;100.00;101055.44;4874119;29;20029;-74
2023/04/06 04:19:12;;;;;;;25.40;14.30;;;-3.00;99.90;;;-2.09;100.00;101064.34;4843709;29;20108;-74
2023/04/06 04:21:46;;;;;;;21.10;12.73;;;-3.20;99.90;;;-2.16;100.00;101063.97;4859199;29;20046;-74
2023/04/06 04:24:15;;;;;;;21.02;11.95;;;-3.30;99.90;;;-2.25;100.00;101060.19;4860437;29;20401;-74
2023/04/06 04:26:41;;;;;;;22.60;12.55;;;-3.30;99.90;;;-2.40;100.00;101066.75;4876061;29;20033;-73
2023/04/06 04:29:07;;;;;;;19.17;11.38;;;-3.40;99.90;;;-2.44;100.00;101059.97;4865103;29;20041;-73
2023/04/06 04:31:35;;;;;;;21.80;12.05;;;-3.40;99.90;;;-2.48;100.00;101056.69;4859343;29;20446;-74
2023/04/06 04:34:03;;;;;;;23.70;12.45;;;-3.50;99.90;;;-2.65;100.00;101037.50;4878111;29;20164;-73
2023/04/06 04:36:32;;;;;;;21.42;13.15;;;-3.50;99.90;;;-2.55;100.00;101067.03;4857709;29;20134;-73
2023/04/06 04:39:01;;;;;;;21.55;12.80;;;-3.50;99.90;;;-2.49;100.00;101061.19;4863828;29;20498;-73
2023/04/06 04:41:30;;;;;;;21.30;12.55;;;-3.50;99.90;;;-2.33;100.00;101060.81;4835268;29;20430;-73
2023/04/06 04:43:57;;;;;;;23.55;13.30;;;-3.40;99.90;;;-2.25;100.00;101070.06;4852973;29;20116;-75
2023/04/06 04:46:25;;;;;;;20.45;12.27;;;-3.40;99.90;;;-2.20;100.00;101068.69;4854953;29;20060;-72
2023/04/06 04:48:52;;;;;;;25.05;12.23;;;-3.40;99.90;;;-2.12;100.00;101069.91;4857825;29;20045;-75
2023/04/06 04:51:17;;;;;;;21.25;11.77;;;-3.30;99.90;;;-2.09;100.00;101069.69;4874959;29;20505;-74
2023/04/06 04:54:07;;;;;;;22.45;11.85;;;-3.20;99.90;;;-2.02;100.00;101070.88;4870786;29;20048;-73
2023/04/06 04:56:32;;;;;;;20.48;12.30;;;-3.00;99.90;;;-1.84;100.00;101062.34;4852446;29;20026;-74
2023/04/06 04:59:16;;;;;;;20.40;12.80;;;-2.90;99.90;;;-1.90;100.00;101047.63;4847434;29;20041;-74
2023/04/06 05:01:48;;;;;;;22.55;12.13;;;-2.80;99.90;;;-1.81;100.00;101060.25;4860744;29;20025;-74
2023/04/06 05:04:14;;;;;;;25.25;13.35;;;-2.60;99.90;;;-1.83;100.00;101056.84;4852575;29;20485;-75
2023/04/06 05:06:40;;;;;;;23.42;13.27;;;-2.60;99.90;;;-1.83;100.00;101064.88;4860295;29;20033;-74
2023/04/06 05:09:06;;;;;;;20.25;11.68;;;-2.60;99.90;;;-1.70;100.00;101067.41;4850518;29;20391;-74
2023/04/06 05:11:32;;;;;;;25.48;12.40;;;-2.50;99.90;;;-1.54;100.00;101058.09;4873892;29;20044;-74
2023/04/06 05:14:00;;;;;;;;;;;-2.30;99.90;;;-1.38;100.00;101061.19;4855652;29;20498;-75
2023/04/06 05:16:26;;;;;;;22.75;10.88;;;-2.20;99.90;;;-1.26;100.00;101066.50;4860034;29;19950;-76
2023/04/06 05:18:52;;;;;;;18.98;11.50;;;-2.10;99.90;;;-1.26;100.00;101056.63;4861499;29;20124;-76
2023/04/06 05:21:19;;;;;;;20.33;11.18;;;-2.00;99.90;;;-1.20;100.00;101049.91;4857309;29;20116;-75
2023/04/06 05:23:57;;;;;;;17.88;11.05;;;-1.90;99.90;;;-0.95;100.00;101064.72;4848951;29;20044;-75
2023/04/06 05:26:24;;;;;;;19.67;10.68;;;-1.80;99.90;;;-0.95;98.67;101063.91;4857813;29;20092;-75
2023/04/06 05:28:54;;;;;;;19.80;10.20;;;-1.70;99.90;;;-0.82;99.35;101053.81;4859949;29;20111;-75
2023/04/06 05:31:20;;;;;;;16.42;9.93;;;-1.60;99.90;;;-0.83;97.02;101045.94;4820562;29;20087;-74
2023/04/06 05:33:49;;;;;;;17.60;9.65;;;-1.50;99.90;;;-0.44;95.11;101054.16;4831465;29;20042;-75
2023/04/06 05:36:23;;;;;;;15.82;9.23;;;-1.30;99.90;;;-0.26;94.23;101054.38;4840563;29;20065;-76
2023/04/06 05:38:50;;;;;;;15.93;8.82;;;-1.10;99.90;;;-0.22;92.98;101047.75;4840516;29;20026;-75
2023/04/06 05:41:28;;;;;;;15.00;8.68;;;-1.00;99.90;;;-0.19;92.86;101049.31;4849073;29;20090;-75
2023/04/06 05:43:55;;;;;;;18.70;8.90;;;-0.90;99.90;;;-0.08;92.36;101049.22;4842005;29;20117;-75
2023/04/06 05:46:23;;;;;;;17.60;8.55;;;-0.80;99.90;;;0.02;91.50;101048.38;4851863;29;20402;-76
2023/04/06 05:48:49;;;;;;;12.98;8.05;;;-0.70;99.90;;;0.22;90.74;101047.44;4836585;29;20045;-76
2023/04/06 05:51:15;;;;;;;17.45;8.85;;;-0.50;99.90;;;0.32;90.10;101050.13;4839809;29;20045;-75
2023/04/06 05:53:46;;;;;;;15.18;8.15;;;-0.40;99.90;;;0.40;89.31;101050.28;4825283;29;20132;-74
2023/04/06 05:56:12;;;;;;;14.45;8.07;;;-0.30;99.90;;;0.62;88.41;101040.25;4834333;29;20049;-74
2023/04/06 05:58:38;;;;;;;12.32;7.50;;;-0.20;99.90;;;0.89;88.25;101045.88;4824356;29;20121;-74
2023/04/06 06:01:05;;;;;;;17.88;8.38;;;-0.10;99.90;;;1.04;87.66;101043.56;4833022;29;20510;-74
2023/04/06 06:03:38;;;;;;;13.48;7.97;;;0.00;99.90;;;1.16;84.90;101034.38;4829330;29;20068;-74
2023/04/06 06:06:05;;;;;;;12.90;8.48;;;0.20;99.90;;;1.21;85.19;101029.41;4833936;29;20129;-74
2023/04/06 06:08:50;;;;;;;12.52;7.50;;;0.40;99.90;;;1.28;85.05;101038.56;4840334;29;20105;-74
2023/04/06 06:11:17;;;;;;;13.23;7.25;;;0.50;99.90;;;1.37;84.06;101044.91;4839121;29;20049;-74
2023/04/06 06:13:43;;;;;;;15.00;7.75;;;0.70;99.90;;;1.55;82.64;101041.47;4822971;29;20063;-74
2023/04/06 06:16:09;;;;;;;11.57;7.55;;;0.80;99.90;;;1.98;82.90;101039.94;4822391;29;20034;-75
2023/04/06 06:18:41;;;;;;;12.65;7.82;;;1.00;99.90;;;2.24;79.84;101033.84;4822816;29;20041;-75
2023/04/06 06:21:07;;;;;;;12.05;7.65;;;1.10;99.90;;;2.32;77.62;101027.69;4834647;29;20034;-75
2023/04/06 06:23:33;;;;;;;10.73;6.88;;;1.20;99.90;;;2.34;75.39;101012.22;4837336;29;20050;-76
2023/04/06 06:26:00;;;;;;;13.07;7.25;;;1.40;99.90;;;2.42;73.46;101022.25;4824726;29;20038;-75
2023/04/06 06:28:27;;;;;;;13.43;7.85;;;1.50;99.90;;;2.55;72.49;101006.56;4840626;29;20037;-74
2023/04/06 06:30:53;;;;;;;11.32;6.35;;;1.70;99.90;;;2.74;73.33;101020.81;4850282;29;20070;-74
2023/04/06 06:33:22;;;;;;;13.73;7.13;;;1.90;99.90;;;2.85;75.30;101041.28;4822645;29;20498;-74
2023/04/06 06:35:51;;;;;;;13.60;6.97;;;2.00;99.90;;;2.97;76.15;101037.38;4830567;29;20443;-73
2023/04/06 06:38:17;;;;;;;11.32;6.90;;;2.20;99.90;;;3.11;74.52;101041.34;4839599;29;20038;-74
2023/04/06 06:40:43;;;;;;;10.13;6.28;;;2.40;99.90;;;3.14;72.85;101034.75;4827401;29;20034;-74
2023/04/06 06:43:10;;;;;;;12.73;6.25;;;2.50;99.90;;;3.25;71.46;101030.97;4839081;29;20057;-74
2023/04/06 06:45:49;;;;;;;10.93;6.43;;;2.70;99.90;;;3.35;73.24;101036.25;4828891;29;20038;-75
2023/04/06 06:48:15;;;;;;;12.10;6.35;;;2.90;99.90;;;3.62;73.78;101043.31;4839687;29;20069;-74
2023/04/06 06:50:41;;;;;;;13.60;6.22;;;3.00;99.90;;;3.86;71.50;101039.88;4839189;29;20049;-75
2023/04/06 06:53:07;;;;;;;13.10;7.20;;;3.20;99.90;;;3.97;69.58;101036.03;4827262;29;20043;-75
2023/04/06 06:55:33;;;;;;;10.07;5.85;;;3.30;99.90;;;4.23;66.95;101028.81;4825206;29;20030;-75
2023/04/06 06:57:59;;;;;;;12.23;6.65;;;3.50;99.90;;;4.24;68.88;101025.97;4835147;29;20070;-75
2023/04/06 07:00:25;;;;;;;11.30;5.70;;;3.70;99.90;;;4.34;63.17;101012.31;4823437;29;20338;-76
2023/04/06 07:02:52;;;;;;;8.77;5.30;;;3.80;99.90;;;4.38;63.89;101015.53;4821967;29;20065;-76
2023/04/06 07:05:17;;;;;;;10.02;6.20;;;4.00;99.90;;;4.45;65.07;101025.47;4833307;29;20038;-76
2023/04/06 07:07:43;;;;;;;9.77;5.53;;;4.10;99.90;;;4.34;61.36;100992.53;4822961;29;20034;-75
2023/04/06 07:10:10;;;;;;;10.65;6.80;;;4.20;99.90;;;4.54;64.44;101015.53;4838734;29;20120;-76
2023/04/06 07:12:37;;;;;;;13.73;5.97;;;4.30;99.90;;;4.71;63.95;101004.75;4839644;29;20045;-76
2023/04/06 07:15:04;;;;;;;8.90;6.22;;;4.50;99.90;;;4.80;63.40;101016.41;4839146;29;20046;-75
2023/04/06 07:17:30;;;;;;;11.95;6.30;;;4.60;99.90;;;4.99;63.47;101013.31;4838733;29;20042;-76
2023/04/06 07:19:56;;;;;;;14.18;6.32;;;4.70;99.90;;;5.12;62.15;101010.09;4838961;29;20045;-75
2023/04/06 07:22:21;;;;;;;10.52;6.20;;;4.90;99.90;;;5.24;60.52;100994.34;4838931;29;20046;-76
2023/04/06 07:24:47;;;;;;;11.68;6.65;;;5.10;99.90;;;5.26;60.17;100999.59;4824212;29;20045;-76
2023/04/06 07:27:13;;;;;;;9.20;5.60;;;5.10;99.90;;;5.61;59.82;101001.00;4837601;29;20745;-77
2023/04/06 07:29:39;;;;;;;8.90;6.25;;;5.20;99.90;;;5.85;60.22;101003.75;4832335;29;20486;-77
2023/04/06 07:32:05;;;;;;;9.60;6.18;;;5.50;99.90;;;6.06;58.75;101000.47;4822196;29;20454;-77
2023/04/06 07:34:32;;;;;;;8.27;5.95;;;5.60;99.90;;;6.00;56.71;100996.59;4856014;29;20026;-78
2023/04/06 07:36:58;;;;;;;11.13;5.88;;;5.80;99.90;;;6.15;56.50;100990.41;4836306;29;20051;-77
2023/04/06 07:39:26;;;;;;;8.77;5.35;;;5.80;99.90;;;5.98;54.87;100979.66;4818598;29;20061;-78
2023/04/06 07:41:53;;;;;;;10.70;5.70;;;5.90;99.90;;;6.24;55.29;100988.50;4829764;29;20118;-77
2023/04/06 07:44:19;;;;;;;8.05;5.30;;;6.10;99.90;;;6.09;51.98;100983.84;4843037;29;20518;-77
2023/04/06 07:46:45;;;;;;;8.75;5.25;;;6.20;98.20;;;6.08;50.72;100970.50;4830252;29;20034;-78
2023/04/06 07:49:12;;;;;;;7.55;5.22;;;6.10;96.30;;;6.38;51.70;100985.03;4850465;29;20038;-78
2023/04/06 07:51:39;;;;;;;9.15;5.70;;;6.20;97.40;;;6.39;51.51;100975.00;4832808;29;20039;-77
2023/04/06 07:54:05;;;;;;;9.55;5.80;;;6.30;97.30;;;6.52;51.06;100977.97;4829060;29;20492;-78
2023/04/06 07:56:31;;;;;;;8.68;5.78;;;6.50;96.90;;;6.54;50.36;100975.94;4841865;29;20046;-78
2023/04/06 07:59:00;;;;;;;7.85;5.47;;;6.60;95.80;;;6.72;51.07;100981.03;4843357;29;20037;-77
2023/04/06 08:01:28;;;;;;;9.85;5.70;;;6.60;96.60;;;6.93;50.79;100984.03;4842720;29;20046;-78
2023/04/06 08:03:55;;;;;;;8.95;5.53;;;6.80;96.30;;;6.76;50.83;100974.19;4842231;29;20497;-77
2023/04/06 08:06:21;;;;;;;8.52;5.72;;;6.80;95.90;;;7.08;49.69;100968.66;4839427;29;20066;-77
2023/04/06 08:08:47;;;;;;;10.05;5.70;;;7.00;95.00;;;7.02;50.29;100964.78;4841288;29;20076;-75
2023/04/06 08:11:12;;;;;;;9.05;6.38;;;7.00;95.50;;;7.27;49.86;100978.09;4841638;29;20045;-76
2023/04/06 08:13:38;;;;;;;7.88;5.18;;;7.20;95.00;;;7.17;49.77;100950.41;4839617;29;20148;-75
2023/04/06 08:16:04;;;;;;;9.45;5.65;;;7.30;94.90;;;7.27;49.97;100972.66;4840534;29;20102;-77
2023/04/06 08:18:30;;;;;;;8.02;5.78;;;7.30;95.00;;;7.61;50.90;100979.38;4841556;29;20513;-76
2023/04/06 08:20:56;;;;;;;8.45;6.00;;;7.40;96.00;;;7.57;50.31;100980.78;4841461;29;20050;-76
2023/04/06 08:23:22;;;;;;;8.55;5.32;;;7.50;95.30;;;7.73;50.70;100978.91;4845630;29;20398;-77
2023/04/06 08:25:48;;;;;;;10.85;6.30;;;7.60;95.90;;;7.94;50.24;100955.53;4843055;29;20042;-80
2023/04/06 08:28:14;;;;;;;11.02;5.93;;;7.90;95.40;;;8.05;48.75;100958.59;4841589;29;20050;-77
2023/04/06 08:30:42;;;;;;;8.38;6.00;;;8.00;93.90;;;8.46;50.44;100980.75;4855572;29;20061;-76
2023/04/06 08:33:08;;;;;;;10.13;5.85;;;8.20;95.70;;;8.50;48.74;100968.47;4842310;29;20046;-77
2023/04/06 08:35:34;;;;;;;9.50;5.72;;;8.30;93.90;;;8.23;48.23;100975.50;4840482;29;20517;-77
2023/04/06 08:38:00;;;;;;;8.77;5.57;;;8.20;93.00;;;8.41;48.26;100969.63;4841399;29;20050;-78
2023/04/06 08:40:26;;;;;;;8.75;5.82;;;8.30;93.30;;;8.28;46.46;100956.75;4837022;29;20121;-75
2023/04/06 08:42:56;;;;;;;8.68;5.90;;;8.30;91.30;;;8.54;47.49;100969.75;4839462;29;20087;-76
2023/04/06 08:45:24;;;;;;;9.65;6.22;;;8.50;92.10;;;8.71;47.30;100964.88;4839810;29;20045;-76
2023/04/06 08:47:52;;;;;;;9.23;5.80;;;8.60;92.30;;;8.84;47.44;100957.88;4841834;29;20044;-76
2023/04/06 08:50:19;;;;;;;10.77;6.18;;;8.80;92.80;;;8.91;45.88;100947.88;4839966;29;20162;-76
2023/04/06 08:52:48;;;;;;;11.10;6.47;;;8.80;90.50;;;9.03;44.97;100932.69;4841085;29;20034;-75
2023/04/06 08:55:15;;;;;;;9.20;5.88;;;9.00;90.00;;;9.58;46.07;100958.31;4841098;29;20121;-75
2023/04/06 08:57:43;;;;;;;10.88;5.50;;;9.30;91.40;;;9.34;43.63;100945.00;4838497;29;20387;-75
2023/04/06 09:00:11;;;;;;;13.32;6.50;;;9.40;86.90;;;9.37;43.42;100937.47;4831100;29;20070;-76
2023/04/06 09:02:43;;;;;;;9.18;5.82;;;9.40;86.10;;;9.63;42.92;100945.78;4840788;29;20041;-76
2023/04/06 09:05:10;;;;;;;10.40;6.10;;;9.60;85.40;;;9.50;42.51;100940.25;4839551;29;20046;-75
2023/04/06 09:07:40;;;;;;;7.60;5.30;;;9.70;83.30;;;9.68;42.32;100938.88;4824560;29;20039;-75
2023/04/06 09:10:07;;;;;;;10.32;6.07;;;9.70;83.30;;;9.47;42.13;100933.34;4840462;29;20045;-75
2023/04/06 09:12:33;;;;;;;8.82;5.50;;;9.50;82.50;;;9.49;42.64;100930.41;4840801;29;20034;-75
2023/04/06 09:15:00;;;;;;;8.15;5.57;;;9.60;82.50;;;9.64;42.42;100933.81;4840506;29;20487;-76
2023/04/06 09:17:33;;;;;;;10.50;5.97;;;9.70;82.30;;;9.67;42.12;100918.94;4839760;29;20431;-74
2023/04/06 09:20:02;;;;;;;10.30;6.22;;;9.80;81.80;;;10.40;42.77;100950.19;4834176;29;20042;-76
2023/04/06 09:22:39;;;;;;;10.05;6.63;;;10.20;83.60;;;10.53;42.58;100930.25;4840638;29;20046;-76
2023/04/06 09:25:09;;;;;;;10.35;5.90;;;10.50;83.60;;;10.83;40.43;100939.88;4840921;29;20050;-79
2023/04/06 09:27:37;;;;;;;10.63;6.20;;;10.80;79.80;;;10.61;39.35;100926.50;4843208;29;20021;-77
2023/04/06 09:30:16;;;;;;;8.35;5.65;;;10.80;76.40;;;11.10;40.42;100934.38;4850559;29;20514;-78
2023/04/06 09:32:51;;;;;;;10.45;6.18;;;11.00;77.90;;;11.26;41.71;100933.94;4864856;29;20033;-76
2023/04/06 09:35:22;;;;;;;12.48;6.57;;;11.30;79.20;;;11.14;38.61;100919.25;4871104;29;20100;-75
2023/04/06 09:37:52;;;;;;;9.68;6.00;;;11.30;74.40;;;11.05;39.38;100921.41;4878060;29;20185;-75
2023/04/06 09:40:19;;;;;;;9.13;5.68;;;11.10;75.60;;;11.11;39.13;100909.63;4859701;29;20036;-77
2023/04/06 09:42:47;;;;;;;8.80;6.18;;;11.20;74.90;;;11.08;38.71;100916.34;4858766;29;20401;-77
2023/04/06 09:45:14;;;;;;;10.88;6.20;;;11.10;73.80;;;11.54;38.71;100918.28;4876903;29;20126;-77
2023/04/06 09:47:45;;;;;;;8.85;6.00;;;11.40;74.50;;;11.75;38.02;100908.94;4884876;29;20124;-76
2023/04/06 09:50:14;;;;;;;8.68;5.53;;;11.70;73.30;;;11.94;37.72;100912.63;4860457;29;20498;-75
2023/04/06 09:52:53;;;;;;;9.35;5.95;;;11.80;73.40;;;11.68;35.90;100894.50;4877228;29;20044;-77
2023/04/06 09:55:42;;;;;;;10.07;6.13;;;11.90;68.80;;;11.83;37.42;100910.59;4873171;29;20041;-76
2023/04/06 09:58:15;;;;;;;10.15;6.28;;;11.80;70.80;;;12.18;36.30;100902.81;4876367;29;20084;-77
2023/04/06 10:00:55;;;;;;;11.30;5.82;;;12.00;70.40;;;12.36;34.94;100891.13;4877209;29;20040;-76
2023/04/06 10:03:37;;;;;;;9.00;5.95;;;12.30;67.70;;;12.67;35.96;100896.75;4873226;29;20036;-75
2023/04/06 10:06:17;;;;;;;8.70;5.72;;;12.90;67.20;;;13.33;35.94;100888.03;4872528;29;20048;-76
2023/04/06 10:08:49;;;;;;;9.45;5.95;;;14.30;65.90;;;13.83;33.88;100886.16;4857123;29;20131;-77
2023/04/06 10:11:16;;;;;;;16.80;6.65;;;14.90;62.40;;;13.74;32.35;100861.81;4876081;29;20048;-77